New Yoshino — JG5527 — position and weather

sailwx.info

Track history (hours):
 
Tides and Currents Weather Stations Pressure Air Temp Water Temp Dewpoint Dewpoint Depression Visibility Wind Speed Wind Dir Waves Ship Positions

New Yoshino

Last reported at 2018-Jun-21 14:09 UTC. Time now 2018-Jun-25 06:10 UTC.
Position N 35°14' E 139°46'.

Length 102 m; draft 6.8 m.

Type: Tanker. MMSI: 431300724.

Date/timePositionNaut miles runAvg speedWind from/ knotsBaromVisibWave heightAir tempDewpointWater temp
2018-Jun-21 14:09N 35°14' E 139°46'211.5
2018-Jun-21 14:00N 35°16' E 139°46'611.9
2018-Jun-21 13:29N 35°21' E 139°42'511.1
2018-Jun-21 13:00N 35°26' E 139°45'611.5
2018-Jun-21 12:30N 35°29' E 139°51'3 4.2
2018-Jun-21 11:49N 35°29' E 139°55'0 0.0
2018-Jun-21 11:28N 35°29' E 139°55'0 0.0
2018-Jun-21 10:58N 35°29' E 139°55'0 0.0
2018-Jun-21 10:25N 35°29' E 139°55'0 0.0
2018-Jun-21 09:52N 35°29' E 139°55'0 0.0
2018-Jun-21 09:25N 35°29' E 139°55'0 0.0
2018-Jun-21 03:28N 35°29' E 139°55'0 0.0
2018-Jun-21 01:46N 35°29' E 139°55'0 0.1
2018-Jun-21 01:28N 35°29' E 139°55'0 0.0
2018-Jun-20 21:01N 35°29' E 139°55'0 0.1
2018-Jun-20 20:55N 35°29' E 139°55'0 0.0
2018-Jun-20 20:25N 35°29' E 139°55'0 0.0
2018-Jun-20 19:58N 35°29' E 139°55'0 0.0
2018-Jun-20 19:25N 35°29' E 139°55'0 0.0
2018-Jun-20 18:13N 35°29' E 139°54'0 0.0
2018-Jun-20 17:58N 35°29' E 139°54'0 0.0
2018-Jun-20 17:28N 35°29' E 139°54'0 0.0
2018-Jun-20 16:55N 35°29' E 139°54'0 0.0
2018-Jun-20 16:28N 35°29' E 139°54'0 0.1
2018-Jun-20 15:58N 35°29' E 139°55'0 0.0
2018-Jun-20 15:28N 35°29' E 139°55'0 0.0
2018-Jun-20 13:22N 35°29' E 139°55'0 0.0
2018-Jun-20 12:46N 35°29' E 139°55'0 0.2
2018-Jun-20 12:28N 35°29' E 139°55'3 5.8
2018-Jun-20 12:00N 35°29' E 139°58'1 0.2
2018-Jun-20 05:31N 35°30' E 139°59'0 6.4
2018-Jun-20 05:29N 35°30' E 139°59'0 0.1
2018-Jun-20 02:26N 35°30' E 139°58'2 4.2
2018-Jun-20 02:00N 35°29' E 139°56'612.8
2018-Jun-20 01:30N 35°27' E 139°49'612.5
2018-Jun-20 01:00N 35°21' E 139°45'611.5
2018-Jun-20 00:30N 35°16' E 139°47'712.7
2018-Jun-19 23:59N 35°09' E 139°46'  
2018-Jun-15 10:49N 35°13' E 139°46'412.4
2018-Jun-15 10:30N 35°17' E 139°45'612.5
2018-Jun-15 10:00N 35°23' E 139°42'612.8
2018-Jun-15 09:30N 35°27' E 139°48'713.1
2018-Jun-15 09:00N 35°31' E 139°55'4 0.3
2018-Jun-14 20:51N 35°31' E 139°59'0 0.0
2018-Jun-14 20:03N 35°31' E 139°59'0 0.0
2018-Jun-14 19:57N 35°31' E 139°59'0 0.0
2018-Jun-14 19:21N 35°31' E 139°59'0 0.0
2018-Jun-14 17:54N 35°31' E 139°59'0 0.1
2018-Jun-14 17:27N 35°31' E 139°59'0 0.0
2018-Jun-14 16:57N 35°31' E 139°59'0 0.0
2018-Jun-14 16:31N 35°31' E 139°59'0 0.0
2018-Jun-14 16:00N 35°31' E 139°59'0 0.0
2018-Jun-14 15:30N 35°31' E 139°59'0 0.0
2018-Jun-14 13:57N 35°31' E 139°59'0 0.0
2018-Jun-14 13:24N 35°31' E 139°59'0 0.1
2018-Jun-14 12:59N 35°31' E 139°59'5 9.8
2018-Jun-14 12:30N 35°29' E 139°54'612.8
2018-Jun-14 12:00N 35°25' E 139°48'612.4
2018-Jun-14 11:30N 35°20' E 139°44'611.8
2018-Jun-14 11:00N 35°14' E 139°47'713.2
2018-Jun-14 10:30N 35°08' E 139°46'  
Track history (hours):
 
Tides and Currents Weather Stations Pressure Air Temp Water Temp Dewpoint Dewpoint Depression Visibility Wind Speed Wind Dir Waves Ship Positions

New Yoshino

Last reported at 2018-Jun-21 14:09 UTC. Time now 2018-Jun-25 06:10 UTC.
Position N 35°14' E 139°46'.

Length 102 m; draft 6.8 m.

Type: Tanker. MMSI: 431300724.

Date/timePositionNaut miles runAvg speedWind from/ knotsBaromVisibWave heightAir tempDewpointWater temp
2018-Jun-21 14:09N 35°14' E 139°46'211.5
2018-Jun-21 14:00N 35°16' E 139°46'611.9
2018-Jun-21 13:29N 35°21' E 139°42'511.1
2018-Jun-21 13:00N 35°26' E 139°45'611.5
2018-Jun-21 12:30N 35°29' E 139°51'3 4.2
2018-Jun-21 11:49N 35°29' E 139°55'0 0.0
2018-Jun-21 11:28N 35°29' E 139°55'0 0.0
2018-Jun-21 10:58N 35°29' E 139°55'0 0.0
2018-Jun-21 10:25N 35°29' E 139°55'0 0.0
2018-Jun-21 09:52N 35°29' E 139°55'0 0.0
2018-Jun-21 09:25N 35°29' E 139°55'0 0.0
2018-Jun-21 03:28N 35°29' E 139°55'0 0.0
2018-Jun-21 01:46N 35°29' E 139°55'0 0.1
2018-Jun-21 01:28N 35°29' E 139°55'0 0.0
2018-Jun-20 21:01N 35°29' E 139°55'0 0.1
2018-Jun-20 20:55N 35°29' E 139°55'0 0.0
2018-Jun-20 20:25N 35°29' E 139°55'0 0.0
2018-Jun-20 19:58N 35°29' E 139°55'0 0.0
2018-Jun-20 19:25N 35°29' E 139°55'0 0.0
2018-Jun-20 18:13N 35°29' E 139°54'0 0.0
2018-Jun-20 17:58N 35°29' E 139°54'0 0.0
2018-Jun-20 17:28N 35°29' E 139°54'0 0.0
2018-Jun-20 16:55N 35°29' E 139°54'0 0.0
2018-Jun-20 16:28N 35°29' E 139°54'0 0.1
2018-Jun-20 15:58N 35°29' E 139°55'0 0.0
2018-Jun-20 15:28N 35°29' E 139°55'0 0.0
2018-Jun-20 13:22N 35°29' E 139°55'0 0.0
2018-Jun-20 12:46N 35°29' E 139°55'0 0.2
2018-Jun-20 12:28N 35°29' E 139°55'3 5.8
2018-Jun-20 12:00N 35°29' E 139°58'1 0.2
2018-Jun-20 05:31N 35°30' E 139°59'0 6.4
2018-Jun-20 05:29N 35°30' E 139°59'0 0.1
2018-Jun-20 02:26N 35°30' E 139°58'2 4.2
2018-Jun-20 02:00N 35°29' E 139°56'612.8
2018-Jun-20 01:30N 35°27' E 139°49'612.5
2018-Jun-20 01:00N 35°21' E 139°45'611.5
2018-Jun-20 00:30N 35°16' E 139°47'712.7
2018-Jun-19 23:59N 35°09' E 139°46'  
2018-Jun-15 10:49N 35°13' E 139°46'412.4
2018-Jun-15 10:30N 35°17' E 139°45'612.5
2018-Jun-15 10:00N 35°23' E 139°42'612.8
2018-Jun-15 09:30N 35°27' E 139°48'713.1
2018-Jun-15 09:00N 35°31' E 139°55'4 0.3
2018-Jun-14 20:51N 35°31' E 139°59'0 0.0
2018-Jun-14 20:03N 35°31' E 139°59'0 0.0
2018-Jun-14 19:57N 35°31' E 139°59'0 0.0
2018-Jun-14 19:21N 35°31' E 139°59'0 0.0
2018-Jun-14 17:54N 35°31' E 139°59'0 0.1
2018-Jun-14 17:27N 35°31' E 139°59'0 0.0
2018-Jun-14 16:57N 35°31' E 139°59'0 0.0
2018-Jun-14 16:31N 35°31' E 139°59'0 0.0
2018-Jun-14 16:00N 35°31' E 139°59'0 0.0
2018-Jun-14 15:30N 35°31' E 139°59'0 0.0
2018-Jun-14 13:57N 35°31' E 139°59'0 0.0
2018-Jun-14 13:24N 35°31' E 139°59'0 0.1
2018-Jun-14 12:59N 35°31' E 139°59'5 9.8
2018-Jun-14 12:30N 35°29' E 139°54'612.8
2018-Jun-14 12:00N 35°25' E 139°48'612.4
2018-Jun-14 11:30N 35°20' E 139°44'611.8
2018-Jun-14 11:00N 35°14' E 139°47'713.2
2018-Jun-14 10:30N 35°08' E 139°46'  

Dump ship's entire track history